Time;durP1;ratioP1;P1;durP2;ratioP2;P2;SDS_P1;SDS_P2;PMS_P1;PMS_P2;Temp;Humidity;BMP_temperature;BMP_pressure;BME280_temperature;BME280_humidity;BME280_pressure;Samples;Min_cycle;Max_cycle;Signal;HPM_P1;HPM_P2
2022/01/19 00:00:23;;;;;;;;;25.25;21.50;;;;;9.18;56.63;102561.22;4935485;28;45099;-75
2022/01/19 00:02:48;;;;;;;;;31.25;28.50;;;;;9.20;57.49;102555.16;4928910;28;45085;-75
2022/01/19 00:05:14;;;;;;;;;22.75;18.25;;;;;9.34;56.70;102582.69;4945495;28;45437;-75
2022/01/19 00:07:40;;;;;;;;;21.25;16.00;;;;;9.14;57.30;102556.53;4940292;28;45255;-75
2022/01/19 00:10:10;;;;;;;;;21.00;18.25;;;;;9.55;57.50;102623.09;4947529;28;45231;-75
2022/01/19 00:12:36;;;;;;;;;22.25;17.50;;;;;9.62;56.86;102619.03;4944466;28;45107;-75
2022/01/19 00:15:02;;;;;;;;;21.50;19.25;;;;;9.25;56.86;102568.75;4946699;28;45914;-74
2022/01/19 00:17:27;;;;;;;;;18.50;16.25;;;;;9.61;56.29;102624.28;4941976;28;45164;-75
2022/01/19 00:19:53;;;;;;;;;20.75;16.00;;;;;9.12;56.58;102513.75;4936144;28;45101;-77
2022/01/19 00:22:18;;;;;;;;;15.50;14.50;;;;;9.61;55.99;102590.50;4919129;28;45281;-76
2022/01/19 00:24:44;;;;;;;;;20.50;15.75;;;;;9.37;56.83;102537.53;4941138;28;45719;-75
2022/01/19 00:27:11;;;;;;;;;20.00;19.00;;;;;8.98;56.94;102462.28;4937400;28;45203;-75
2022/01/19 00:29:36;;;;;;;;;19.25;18.25;;;;;9.61;57.72;102566.47;4936781;28;45176;-74
2022/01/19 00:32:02;;;;;;;;;20.00;17.50;;;;;9.61;57.26;102565.56;4947206;28;45166;-75
2022/01/19 00:34:28;;;;;;;;;20.75;18.25;;;;;9.54;57.22;102543.84;4943195;28;45776;-74
2022/01/19 00:36:54;;;;;;;;;18.00;18.00;;;;;9.54;56.88;102549.19;4950841;28;45046;-75
2022/01/19 00:39:19;;;;;;;;;14.75;13.00;;;;;9.55;56.88;102547.44;4943171;28;45095;-74
2022/01/19 00:41:44;;;;;;;;;22.00;19.50;;;;;9.06;56.66;102456.47;4938756;28;45178;-74
2022/01/19 00:44:10;;;;;;;;;19.00;19.00;;;;;9.59;57.10;102566.38;4947935;28;45509;-74
2022/01/19 00:46:35;;;;;;;;;19.00;15.25;;;;;9.47;57.11;102540.72;4937625;28;45126;-75
2022/01/19 00:49:01;;;;;;;;;20.25;19.25;;;;;9.58;56.62;102564.53;4947630;28;45275;-73
2022/01/19 00:51:27;;;;;;;;;21.00;19.00;;;;;8.87;56.94;102446.47;4939037;28;45096;-74
2022/01/19 00:53:52;;;;;;;;;20.25;17.00;;;;;9.34;56.58;102533.75;4944116;28;46142;-75
2022/01/19 00:56:18;;;;;;;;;23.00;17.25;;;;;9.31;56.73;102545.13;4949569;28;45102;-73
2022/01/19 00:58:44;;;;;;;;;15.75;15.75;;;;;9.47;57.67;102579.00;4936702;28;45129;-73
2022/01/19 01:01:09;;;;;;;;;15.75;12.75;;;;;9.50;56.75;102568.53;4942495;28;45043;-75
2022/01/19 01:03:34;;;;;;;;;21.25;17.50;;;;;9.50;57.49;102556.91;4942525;28;46047;-75
2022/01/19 01:06:00;;;;;;;;;21.50;17.75;;;;;9.13;57.02;102482.69;4938961;28;44992;-74
2022/01/19 01:08:25;;;;;;;;;17.75;15.00;;;;;9.52;56.92;102552.56;4936321;28;45198;-74
2022/01/19 01:10:51;;;;;;;;;20.25;18.00;;;;;9.49;57.45;102545.34;4936559;28;45195;-75
2022/01/19 01:13:23;;;;;;;;;19.00;15.50;;;;;9.19;56.55;102499.09;4946883;28;45258;-75
2022/01/19 01:18:24;;;;;;;;;18.50;16.25;;;;;9.18;56.00;102470.56;4935404;28;45016;-74
2022/01/19 01:20:52;;;;;;;;;17.50;14.00;;;;;9.43;55.30;102528.03;4938150;28;45490;-76
2022/01/19 01:23:21;;;;;;;;;18.25;15.50;;;;;9.41;56.13;102523.50;4930965;28;47513;-74
2022/01/19 01:25:46;;;;;;;;;19.75;16.25;;;;;9.16;55.71;102472.22;4945850;28;45110;-74
2022/01/19 01:28:13;;;;;;;;;12.75;12.25;;;;;8.90;55.18;102425.34;4919597;28;45140;-76
2022/01/19 01:30:38;;;;;;;;;20.75;18.00;;;;;9.47;56.47;102519.38;4917063;28;45346;-75
2022/01/19 01:33:04;;;;;;;;;19.00;13.00;;;;;8.52;55.15;102362.66;4934819;28;45427;-74
2022/01/19 01:35:30;;;;;;;;;17.75;17.75;;;;;9.25;54.82;102493.19;4937444;28;45075;-73
2022/01/19 01:37:56;;;;;;;;;18.75;15.25;;;;;9.50;55.22;102540.91;4941536;28;45322;-74
2022/01/19 01:40:24;;;;;;;;;18.50;13.50;;;;;9.39;55.06;102518.94;4939122;28;45174;-76
2022/01/19 01:42:51;;;;;;;;;20.75;16.75;;;;;9.00;54.81;102441.97;4939891;28;45612;-76
2022/01/19 01:45:18;;;;;;;;;16.00;14.00;;;;;9.57;55.02;102528.03;4946652;28;45045;-74
2022/01/19 01:47:48;;;;;;;;;21.00;18.00;;;;;9.36;54.87;102478.75;4936921;28;45240;-75
2022/01/19 01:55:26;;;;;;;;;17.50;16.75;;;;;8.90;54.39;102423.56;4950505;28;45154;-74
2022/01/19 01:57:52;;;;;;;;;19.00;19.00;;;;;9.47;53.95;102514.03;4942558;28;45149;-76
2022/01/19 02:00:22;;;;;;;;;18.00;17.50;;;;;9.47;55.50;102511.38;4943915;28;45147;-75
2022/01/19 02:02:48;;;;;;;;;18.25;15.25;;;;;9.42;54.47;102503.13;4936400;28;47629;-74
2022/01/19 02:05:16;;;;;;;;;23.50;13.75;;;;;9.43;54.73;102498.69;4944744;28;45641;-74
2022/01/19 02:08:04;;;;;;;;;19.75;17.00;;;;;9.39;54.51;102490.50;4940816;28;45045;-74
2022/01/19 02:16:18;;;;;;;;;17.00;13.50;;;;;9.28;54.90;102453.34;4952963;28;45102;-76
2022/01/19 02:24:13;;;;;;;;;17.75;17.25;;;;;9.45;54.36;102459.69;4938017;28;45061;-74
2022/01/19 02:26:55;;;;;;;;;17.25;17.25;;;;;8.94;54.51;102369.63;4945031;28;45289;-74
2022/01/19 02:40:18;;;;;;;;;18.25;18.25;;;;;9.37;54.12;102424.53;4949098;28;45202;-75
2022/01/19 02:50:34;;;;;;;;;17.50;17.50;;;;;9.31;54.71;102403.78;4942777;28;45162;-76
2022/01/19 02:53:00;;;;;;;;;14.25;13.75;;;;;8.88;54.72;102331.94;4941039;28;45208;-73
2022/01/19 02:55:26;;;;;;;;;15.50;13.50;;;;;9.08;54.87;102358.88;4926363;28;45559;-74
2022/01/19 02:57:51;;;;;;;;;19.25;17.50;;;;;9.36;54.65;102388.03;4924197;28;45145;-76
2022/01/19 03:08:46;;;;;;;;;18.75;16.25;;;;;8.68;54.63;102290.81;4937830;28;45342;-75
2022/01/19 03:11:15;;;;;;;;;25.50;20.50;;;;;9.13;54.84;102382.28;4934906;28;45225;-74
2022/01/19 03:13:42;;;;;;;;;20.00;18.50;;;;;9.15;55.30;102371.72;4939564;28;46976;-75
2022/01/19 03:16:07;;;;;;;;;26.75;18.50;;;;;9.25;55.25;102386.50;4944721;28;45758;-75
2022/01/19 03:18:33;;;;;;;;;21.00;19.50;;;;;8.77;54.83;102312.66;4948781;28;45219;-74
2022/01/19 03:20:58;;;;;;;;;18.75;17.00;;;;;8.97;54.89;102367.13;4945544;28;45036;-76
2022/01/19 03:23:24;;;;;;;;;21.75;19.75;;;;;7.89;54.99;102176.94;4945333;28;45324;-76
2022/01/19 03:25:53;;;;;;;;;22.00;18.25;;;;;8.28;55.49;102249.38;4942830;28;46906;-72
2022/01/19 03:28:19;;;;;;;;;21.75;19.50;;;;;8.14;55.06;102205.03;4940393;28;45203;-76
2022/01/19 03:30:46;;;;;;;;;24.75;20.00;;;;;8.34;55.42;102238.16;4944485;28;45212;-75
2022/01/19 03:33:12;;;;;;;;;35.00;32.25;;;;;9.00;55.02;102340.66;4944157;28;45153;-75
2022/01/19 03:35:38;;;;;;;;;19.50;18.00;;;;;8.10;54.70;102213.63;4955164;28;45729;-74
2022/01/19 03:38:06;;;;;;;;;23.50;19.75;;;;;7.79;55.51;102150.63;4950855;28;45151;-76
2022/01/19 03:40:31;;;;;;;;;19.00;18.50;;;;;8.44;55.06;102252.97;4949502;28;45031;-76
2022/01/19 03:42:58;;;;;;;;;23.75;16.00;;;;;9.15;55.67;102380.63;4948780;28;44895;-74
2022/01/19 03:45:23;;;;;;;;;23.00;17.00;;;;;8.84;55.79;102341.53;4947428;28;46051;-76
2022/01/19 03:48:06;;;;;;;;;20.00;17.75;;;;;8.97;55.25;102327.13;4938838;28;45076;-73
2022/01/19 03:50:32;;;;;;;;;24.75;19.00;;;;;8.85;55.99;102338.00;4937302;28;45092;-72
2022/01/19 03:52:58;;;;;;;;;26.25;19.00;;;;;9.04;55.32;102342.69;4938937;28;44909;-76
2022/01/19 03:55:23;;;;;;;;;23.25;22.00;;;;;9.13;56.15;102365.38;4951505;28;45130;-75
2022/01/19 03:57:49;;;;;;;;;19.00;18.25;;;;;8.60;55.52;102282.34;4954383;28;45027;-75
2022/01/19 04:00:15;;;;;;;;;28.25;19.75;;;;;8.01;55.28;102175.84;4943419;28;45303;-75
2022/01/19 04:02:41;;;;;;;;;20.00;17.75;;;;;7.78;55.68;102145.19;4944533;28;45011;-75
2022/01/19 04:05:16;;;;;;;;;25.50;15.75;;;;;9.12;56.40;102351.09;4936237;28;46116;-75
2022/01/19 04:07:41;;;;;;;;;20.25;19.75;;;;;8.78;55.66;102290.53;4940014;28;45085;-75
2022/01/19 04:10:07;;;;;;;;;25.75;22.50;;;;;8.97;55.16;102310.22;4943318;28;45152;-75
2022/01/19 04:12:52;;;;;;;;;20.75;18.50;;;;;9.18;55.33;102342.56;4936749;28;45302;-77
2022/01/19 04:15:19;;;;;;;;;22.50;21.75;;;;;8.01;56.05;102133.25;4950793;28;45170;-75
2022/01/19 04:17:53;;;;;;;;;28.00;18.00;;;;;8.97;55.59;102305.81;4938677;28;45131;-75
2022/01/19 04:20:23;;;;;;;;;21.75;20.25;;;;;7.79;56.32;102099.13;4940381;28;45105;-76
2022/01/19 04:22:49;;;;;;;;;29.00;20.50;;;;;9.15;55.77;102337.97;4935871;28;45171;-76
2022/01/19 04:25:14;;;;;;;;;22.00;17.00;;;;;8.65;55.47;102270.22;4941085;28;45955;-76
2022/01/19 04:27:42;;;;;;;;;24.00;22.50;;;;;8.21;56.12;102177.94;4942683;28;45044;-72
2022/01/19 04:30:11;;;;;;;;;20.50;18.75;;;;;8.70;55.57;102272.25;4946910;28;45175;-73
2022/01/19 04:35:09;;;;;;;;;25.75;19.00;;;;;8.65;56.24;102270.22;4949665;28;45088;-75
2022/01/19 05:04:46;;;;;;;;;30.25;25.75;;;;;8.58;57.01;102272.44;4942611;28;45158;-72
2022/01/19 05:07:24;;;;;;;;;30.00;24.25;;;;;8.20;57.57;102228.41;4940895;28;45438;-72
2022/01/19 05:09:58;;;;;;;;;26.25;23.50;;;;;8.09;57.35;102217.16;4935234;28;45148;-75
2022/01/19 05:15:09;;;;;;;;;26.00;22.00;;;;;8.72;56.79;102292.81;4946538;28;44976;-72
2022/01/19 05:17:36;;;;;;;;;34.75;24.50;;;;;9.11;56.47;102337.72;4941806;28;45800;-73
2022/01/19 05:20:03;;;;;;;;;24.50;22.25;;;;;7.65;56.57;102071.72;4951309;28;45131;-74
2022/01/19 05:22:29;;;;;;;;;24.25;22.00;;;;;8.86;56.73;102296.31;4938317;28;45176;-73
2022/01/19 05:24:54;;;;;;;;;9.75;8.25;;;;;8.63;56.53;102252.31;4932889;28;45264;-74
2022/01/19 05:27:21;;;;;;;;;28.00;20.75;;;;;9.12;56.24;102337.78;4949565;28;45394;-75
2022/01/19 05:29:47;;;;;;;;;30.50;24.00;;;;;8.42;56.38;102210.22;4946749;28;45190;-75
2022/01/19 05:32:12;;;;;;;;;25.00;20.50;;;;;9.09;56.87;102310.03;4934504;28;45040;-73
2022/01/19 05:34:38;;;;;;;;;23.75;20.00;;;;;7.99;56.74;102111.88;4946006;28;45277;-75
2022/01/19 05:37:04;;;;;;;;;21.25;21.00;;;;;8.29;56.58;102168.66;4934816;28;45147;-72
2022/01/19 05:39:29;;;;;;;;;25.75;23.00;;;;;8.19;56.81;102157.38;4930046;28;45013;-77
2022/01/19 05:41:55;;;;;;;;;27.50;22.75;;;;;8.01;56.45;102096.91;4943560;28;45207;-75
2022/01/19 05:44:21;;;;;;;;;25.50;22.25;;;;;8.53;56.80;102189.59;4945350;28;45226;-74
2022/01/19 05:46:46;;;;;;;;;28.00;26.00;;;;;7.78;57.08;102065.38;4931288;28;47790;-76
2022/01/19 05:49:11;;;;;;;;;30.00;24.25;;;;;8.99;56.73;102322.84;4936770;28;45044;-74
2022/01/19 05:51:37;;;;;;;;;29.25;22.00;;;;;8.39;57.11;102177.19;4942864;28;45144;-72
2022/01/19 05:54:02;;;;;;;;;25.25;19.00;;;;;8.43;57.14;102203.19;4942971;28;45357;-77
2022/01/19 05:56:28;;;;;;;;;24.50;21.00;;;;;8.87;57.00;102255.47;4940639;28;45299;-77
2022/01/19 05:58:53;;;;;;;;;23.25;20.00;;;;;8.08;57.61;102106.16;4939397;28;45222;-73
2022/01/19 06:01:19;;;;;;;;;26.75;20.75;;;;;8.90;57.89;102252.09;4943235;28;45190;-76
2022/01/19 06:03:44;;;;;;;;;23.25;20.50;;;;;8.95;57.38;102259.50;4944923;28;45455;-74
2022/01/19 06:06:10;;;;;;;;;28.50;25.50;;;;;7.94;57.19;102124.00;4945340;28;45453;-72
2022/01/19 06:11:06;;;;;;;;;22.25;20.50;;;;;8.48;57.34;102154.69;4944936;28;45254;-77
2022/01/19 06:13:31;;;;;;;;;27.50;23.75;;;;;8.74;57.47;102218.28;4934283;28;45046;-74
2022/01/19 06:15:57;;;;;;;;;34.00;28.25;;;;;9.45;57.74;102320.94;4942427;28;45398;-76
2022/01/19 06:18:22;;;;;;;;;21.25;17.50;;;;;9.47;57.01;102317.56;4947757;28;45226;-76
2022/01/19 06:20:48;;;;;;;;;19.25;16.75;;;;;9.30;57.11;102289.00;4938240;28;45186;-77
2022/01/19 06:23:14;;;;;;;;;28.50;24.00;;;;;9.32;57.61;102282.00;4945484;28;45123;-77
2022/01/19 06:25:40;;;;;;;;;35.00;25.25;;;;;8.96;56.62;102223.09;4935396;28;45347;-76
2022/01/19 06:28:05;;;;;;;;;28.75;24.50;;;;;9.50;56.91;102319.47;4949033;28;45203;-74
2022/01/19 06:30:31;;;;;;;;;35.00;30.00;;;;;9.37;57.07;102284.09;4938883;28;45514;-76
2022/01/19 06:32:56;;;;;;;;;29.50;26.00;;;;;9.10;57.31;102247.88;4942571;28;45017;-75
2022/01/19 06:35:22;;;;;;;;;27.00;25.25;;;;;9.52;57.76;102309.78;4940712;28;45046;-79
2022/01/19 06:37:48;;;;;;;;;33.50;26.75;;;;;9.53;56.94;102309.88;4937778;28;44893;-77
2022/01/19 06:40:15;;;;;;;;;27.75;22.00;;;;;9.48;57.59;102302.44;4943064;28;45095;-77
2022/01/19 06:42:41;;;;;;;;;25.25;19.50;;;;;9.58;57.48;102318.13;4939706;28;45187;-79
2022/01/19 06:45:09;;;;;;;;;28.00;26.50;;;;;9.59;57.91;102304.88;4932487;28;47531;-77
2022/01/19 06:47:34;;;;;;;;;35.00;31.50;;;;;9.31;57.59;102278.41;4941885;28;45251;-78
2022/01/19 06:50:00;;;;;;;;;29.50;25.25;;;;;9.03;57.30;102230.63;4946077;28;45066;-77
2022/01/19 06:52:25;;;;;;;;;33.75;32.75;;;;;8.99;58.52;102250.88;4938804;28;44967;-77
2022/01/19 06:54:51;;;;;;;;;32.50;29.50;;;;;8.74;58.03;102205.88;4942065;28;45733;-77
2022/01/19 06:57:16;;;;;;;;;34.75;28.25;;;;;9.02;57.88;102267.03;4946325;28;45066;-77
2022/01/19 06:59:42;;;;;;;;;38.50;29.75;;;;;9.10;59.10;102322.53;4937251;28;45256;-79
2022/01/19 07:02:08;;;;;;;;;29.00;26.25;;;;;8.79;59.88;102284.38;4944381;28;45013;-77
2022/01/19 07:04:35;;;;;;;;;38.00;33.75;;;;;8.82;60.13;102315.59;4947876;28;45413;-74
2022/01/19 07:07:01;;;;;;;;;34.50;33.50;;;;;8.67;60.57;102307.63;4951301;28;45098;-77
2022/01/19 07:09:26;;;;;;;;;42.00;31.25;;;;;8.40;60.64;102259.84;4954596;28;45082;-77
2022/01/19 07:11:51;;;;;;;;;31.00;29.75;;;;;8.19;61.07;102227.50;4954137;28;45258;-77
2022/01/19 07:14:17;;;;;;;;;32.50;30.75;;;;;8.40;60.28;102253.59;4946380;28;45832;-77
2022/01/19 07:16:44;;;;;;;;;41.25;34.75;;;;;8.38;61.46;102260.56;4937473;28;45171;-76
2022/01/19 07:19:12;;;;;;;;;41.00;34.25;;;;;8.71;60.45;102320.31;4941938;28;45186;-77
2022/01/19 07:21:37;;;;;;;;;43.75;34.50;;;;;8.48;61.44;102282.56;4924125;28;45112;-79
2022/01/19 07:24:03;;;;;;;;;37.50;33.50;;;;;8.60;61.23;102318.75;4943538;28;50323;-78
2022/01/19 07:26:28;;;;;;;;;46.75;36.75;;;;;8.00;62.20;102238.81;4948579;28;45439;-76
2022/01/19 07:28:53;;;;;;;;;45.25;35.25;;;;;8.10;61.85;102250.91;4932251;28;45371;-75
2022/01/19 07:31:19;;;;;;;;;45.75;31.50;;;;;8.49;62.40;102331.41;4933641;28;45454;-75
2022/01/19 07:33:45;;;;;;;;;42.50;33.50;;;;;8.36;61.94;102307.50;4932483;28;46148;-73
2022/01/19 07:36:10;;;;;;;;;40.25;32.25;;;;;8.14;62.45;102262.69;4930526;28;45294;-75
2022/01/19 07:38:35;;;;;;;;;42.00;37.25;;;;;8.49;62.69;102324.31;4932769;28;45060;-75
2022/01/19 07:41:01;;;;;;;;;51.00;41.00;;;;;8.58;62.73;102331.03;4932402;28;45222;-75
2022/01/19 07:43:26;;;;;;;;;40.75;37.50;;;;;8.52;62.56;102315.63;4937562;28;45462;-75
2022/01/19 07:45:52;;;;;;;;;46.25;37.75;;;;;8.54;62.16;102318.38;4938071;28;45151;-76
2022/01/19 07:48:17;;;;;;;;;31.75;30.50;;;;;8.26;62.87;102261.66;4917549;28;45552;-77
2022/01/19 07:50:43;;;;;;;;;39.25;34.25;;;;;8.27;61.76;102255.50;4948668;28;45280;-76
2022/01/19 07:53:08;;;;;;;;;36.00;34.50;;;;;8.65;62.74;102330.59;4933267;28;45092;-75
2022/01/19 07:55:33;;;;;;;;;45.25;34.00;;;;;8.66;62.68;102332.41;4937918;28;45552;-74
2022/01/19 07:57:59;;;;;;;;;49.25;38.25;;;;;8.51;62.35;102296.88;4939118;28;45416;-76
2022/01/19 08:00:24;;;;;;;;;50.75;41.50;;;;;8.58;61.87;102313.31;4930730;28;45845;-73
2022/01/19 08:02:50;;;;;;;;;56.00;41.75;;;;;8.90;62.48;102330.28;4926771;28;45559;-77
2022/01/19 08:05:16;;;;;;;;;41.50;35.00;;;;;9.03;62.19;102331.94;4936680;28;45489;-78
2022/01/19 08:07:42;;;;;;;;;32.50;29.75;;;;;9.08;60.46;102334.88;4914137;28;45798;-77
2022/01/19 08:10:10;;;;;;;;;34.75;29.75;;;;;8.87;60.75;102290.13;4906907;28;45352;-76
2022/01/19 08:12:36;;;;;;;;;35.25;29.25;;;;;8.84;60.75;102288.22;4926082;28;46074;-74
2022/01/19 08:15:01;;;;;;;;;45.25;35.00;;;;;9.04;60.57;102309.75;4928538;28;45769;-72
2022/01/19 08:17:28;;;;;;;;;39.25;30.75;;;;;8.93;60.87;102303.81;4923635;28;46030;-73
2022/01/19 08:19:55;;;;;;;;;38.25;31.50;;;;;9.04;61.21;102340.03;4908859;28;45481;-75
2022/01/19 08:22:20;;;;;;;;;42.50;34.25;;;;;9.03;60.73;102339.94;4920514;28;46067;-76
2022/01/19 08:24:46;;;;;;;;;27.00;25.25;;;;;8.97;61.56;102342.22;4931030;28;45407;-73
2022/01/19 08:27:12;;;;;;;;;39.00;32.50;;;;;8.48;61.57;102277.22;4908282;28;44994;-77
2022/01/19 08:29:37;;;;;;;;;24.75;18.50;;;;;8.75;62.06;102329.41;4926811;28;45604;-75
2022/01/19 08:32:04;;;;;;;;;30.50;26.75;;;;;8.69;62.53;102350.34;4922484;28;45611;-73
2022/01/19 08:34:30;;;;;;;;;24.25;24.25;;;;;8.60;62.85;102346.28;4917731;28;45459;-75
2022/01/19 08:36:56;;;;;;;;;34.25;26.50;;;;;8.62;63.05;102347.28;4904840;28;45699;-76
2022/01/19 08:39:21;;;;;;;;;32.50;30.00;;;;;8.51;62.26;102340.41;4922806;28;45489;-74
2022/01/19 08:41:47;;;;;;;;;31.50;27.75;;;;;8.30;62.95;102292.06;4925338;28;46180;-76
2022/01/19 08:44:12;;;;;;;;;46.50;37.25;;;;;8.66;62.29;102360.00;4923912;28;45399;-77
2022/01/19 08:46:39;;;;;;;;;48.50;31.50;;;;;8.43;62.64;102328.38;4911663;28;45457;-76
2022/01/19 08:49:05;;;;;;;;;33.50;27.25;;;;;8.58;63.30;102361.28;4926838;28;45684;-78
2022/01/19 08:51:30;;;;;;;;;40.75;29.75;;;;;8.61;63.10;102366.78;4917562;28;45456;-72
2022/01/19 08:53:55;;;;;;;;;30.75;23.00;;;;;8.64;62.41;102358.97;4919643;28;45744;-76
2022/01/19 08:56:21;;;;;;;;;37.25;33.75;;;;;8.66;62.46;102370.66;4920041;28;45477;-76
2022/01/19 08:58:46;;;;;;;;;31.25;29.00;;;;;8.71;63.29;102372.66;4924983;28;45470;-72
2022/01/19 09:01:12;;;;;;;;;35.50;27.25;;;;;8.72;62.49;102366.50;4923348;28;46441;-74
2022/01/19 09:03:37;;;;;;;;;35.50;26.75;;;;;8.24;62.13;102275.72;4918850;28;45411;-72
2022/01/19 09:06:03;;;;;;;;;34.75;32.75;;;;;8.66;62.33;102346.66;4908779;28;45442;-74
2022/01/19 09:08:30;;;;;;;;;33.50;32.00;;;;;8.77;62.89;102373.03;4921231;28;45315;-77
2022/01/19 09:10:58;;;;;;;;;37.50;30.75;;;;;8.59;61.92;102349.78;4934668;28;47261;-78
2022/01/19 09:13:24;;;;;;;;;41.00;29.75;;;;;8.79;62.43;102377.66;4926116;28;46698;-77
2022/01/19 09:15:50;;;;;;;;;28.25;22.25;;;;;8.55;62.06;102349.53;4907013;28;45841;-76
2022/01/19 09:18:15;;;;;;;;;37.00;33.25;;;;;8.47;62.11;102335.72;4929058;28;45720;-78
2022/01/19 09:20:41;;;;;;;;;39.50;33.75;;;;;8.65;62.68;102371.47;4919046;28;46334;-77
2022/01/19 09:23:06;;;;;;;;;35.00;29.25;;;;;8.40;63.13;102322.84;4921784;28;45538;-77
2022/01/19 09:25:32;;;;;;;;;37.00;29.50;;;;;8.75;62.09;102388.03;4921363;28;45533;-74
2022/01/19 09:27:58;;;;;;;;;38.75;31.00;;;;;8.48;62.74;102334.91;4928215;28;45311;-75
2022/01/19 09:30:24;;;;;;;;;37.00;30.00;;;;;8.82;63.20;102380.47;4922621;28;46131;-75
2022/01/19 09:33:06;;;;;;;;;32.00;24.75;;;;;8.79;61.86;102374.03;4930200;28;45477;-75
2022/01/19 09:35:50;;;;;;;;;31.75;26.25;;;;;8.91;62.03;102388.13;4921643;28;45332;-77
2022/01/19 09:38:16;;;;;;;;;34.25;32.00;;;;;8.89;61.65;102395.06;4923048;28;45646;-78
2022/01/19 09:40:42;;;;;;;;;32.00;30.25;;;;;8.82;61.89;102375.13;4921099;28;45480;-78
2022/01/19 09:43:09;;;;;;;;;31.00;27.25;;;;;8.49;61.87;102311.00;4925667;28;45555;-75
2022/01/19 09:45:35;;;;;;;;;36.75;24.50;;;;;8.85;61.90;102393.97;4920081;28;45463;-73
2022/01/19 09:48:00;;;;;;;;;40.50;31.75;;;;;7.71;61.92;102211.31;4924985;28;45508;-75
2022/01/19 09:50:25;;;;;;;;;39.50;26.75;;;;;8.87;62.22;102393.16;4928479;28;46694;-75
2022/01/19 09:52:52;;;;;;;;;36.50;29.25;;;;;8.80;61.70;102363.47;4918799;28;45540;-79
2022/01/19 09:55:17;;;;;;;;;32.50;27.75;;;;;9.09;62.16;102390.00;4919953;28;45512;-78
2022/01/19 09:57:42;;;;;;;;;33.50;27.25;;;;;9.17;60.99;102388.72;4928212;28;45478;-76
2022/01/19 10:00:08;;;;;;;;;42.50;32.50;;;;;8.74;60.51;102311.56;4929621;28;45708;-76
2022/01/19 10:02:34;;;;;;;;;42.75;34.00;;;;;8.80;60.72;102309.25;4923772;28;45524;-77
2022/01/19 10:05:07;;;;;;;;;43.25;25.25;;;;;9.13;61.04;102376.94;4927296;28;45641;-76
2022/01/19 10:07:32;;;;;;;;;34.50;27.75;;;;;9.19;60.36;102376.41;4923103;28;45661;-75
2022/01/19 10:10:01;;;;;;;;;29.25;26.75;;;;;9.25;60.19;102376.75;4938150;28;45479;-76
2022/01/19 10:18:12;;;;;;;;;35.50;29.25;;;;;9.31;60.13;102376.19;4923484;28;45566;-74
2022/01/19 10:20:38;;;;;;;;;52.25;41.00;;;;;9.08;60.42;102321.53;4925595;28;45964;-75
2022/01/19 10:23:04;;;;;;;;;38.50;32.25;;;;;8.85;60.21;102287.38;4919005;28;45539;-75
2022/01/19 10:25:50;;;;;;;;;37.75;34.25;;;;;8.11;60.43;102157.84;4913994;28;45523;-75
2022/01/19 10:28:15;;;;;;;;;42.50;32.25;;;;;8.84;60.26;102313.94;4919244;28;45613;-74
2022/01/19 10:30:41;;;;;;;;;39.00;36.00;;;;;9.14;61.10;102359.19;4926160;28;45642;-78
2022/01/19 10:33:07;;;;;;;;;42.00;33.00;;;;;7.62;60.28;102095.47;4935195;28;45330;-76
2022/01/19 10:35:38;;;;;;;;;37.00;32.50;;;;;9.19;59.73;102387.06;4924617;28;45557;-72
2022/01/19 10:38:29;;;;;;;;;42.00;33.00;;;;;8.99;61.13;102357.50;4921855;28;45734;-75
2022/01/19 10:40:58;;;;;;;;;38.75;30.75;;;;;9.19;61.02;102379.06;4914008;28;46160;-75
2022/01/19 10:43:27;;;;;;;;;37.50;30.25;;;;;9.25;59.75;102378.50;4922056;28;45532;-73
2022/01/19 10:45:54;;;;;;;;;36.00;28.75;;;;;8.14;59.95;102210.34;4928394;28;45390;-75
2022/01/19 10:48:39;;;;;;;;;23.25;20.00;;;;;8.96;60.71;102329.72;4921624;28;45466;-77
2022/01/19 10:51:16;;;;;;;;;41.00;33.25;;;;;7.92;60.52;102178.88;4927100;28;45950;-77
2022/01/19 10:53:45;;;;;;;;;36.75;32.75;;;;;8.37;60.70;102211.72;4925914;28;45471;-76
2022/01/19 10:56:24;;;;;;;;;35.75;32.50;;;;;9.21;60.34;102375.66;4919127;28;45433;-75
2022/01/19 10:58:55;;;;;;;;;37.00;26.25;;;;;8.01;60.80;102178.50;4923597;28;45573;-75
2022/01/19 11:01:33;;;;;;;;;42.00;32.25;;;;;9.03;61.11;102369.25;4922210;28;48422;-78
2022/01/19 11:04:24;;;;;;;;;41.25;34.75;;;;;9.01;61.29;102362.91;4907338;28;46019;-75
2022/01/19 11:07:03;;;;;;;;;53.00;37.25;;;;;8.11;60.86;102188.88;4924691;28;45401;-74
2022/01/19 11:09:31;;;;;;;;;43.50;35.75;;;;;8.74;61.35;102287.56;4908634;28;45501;-78
2022/01/19 11:12:11;;;;;;;;;45.75;34.00;;;;;8.57;61.31;102258.19;4918938;28;46059;-77
2022/01/19 11:14:37;;;;;;;;;49.75;39.00;;;;;7.72;61.37;102135.09;4924949;28;45406;-76
2022/01/19 11:17:03;;;;;;;;;54.75;39.50;;;;;8.86;61.82;102312.28;4934469;28;45445;-75
2022/01/19 11:19:30;;;;;;;;;57.50;43.00;;;;;8.34;61.37;102207.97;4944553;28;45363;-74
2022/01/19 11:22:20;;;;;;;;;62.25;41.00;;;;;8.99;61.80;102337.91;4954292;28;46177;-78
2022/01/19 11:25:23;;;;;;;;;56.25;41.50;;;;;9.02;61.54;102340.75;4936789;28;45027;-72
2022/01/19 11:27:49;;;;;;;;;61.00;43.75;;;;;9.04;62.30;102333.75;4881133;28;45479;-75
2022/01/19 11:30:27;;;;;;;;;54.00;41.50;;;;;7.96;62.95;102130.31;4933900;28;45025;-76
2022/01/19 11:33:14;;;;;;;;;55.75;40.75;;;;;8.56;61.81;102232.38;4946922;28;45421;-76
2022/01/19 11:35:42;;;;;;;;;57.75;43.75;;;;;8.59;61.95;102261.84;4944681;28;44935;-74
2022/01/19 11:38:32;;;;;;;;;60.00;46.50;;;;;9.25;61.82;102323.41;4938436;28;45170;-75
2022/01/19 11:41:44;;;;;;;;;51.50;38.25;;;;;9.15;61.69;102308.63;4948793;28;45139;-78
2022/01/19 11:44:33;;;;;;;;;60.25;45.25;;;;;8.75;61.88;102209.47;4934672;28;45283;-75
2022/01/19 11:47:13;;;;;;;;;59.50;45.00;;;;;8.84;61.24;102231.31;4933749;28;44935;-74
2022/01/19 11:50:04;;;;;;;;;61.50;45.00;;;;;9.34;61.97;102315.94;4947169;28;45133;-79
2022/01/19 11:52:38;;;;;;;;;56.00;42.75;;;;;8.98;61.16;102245.44;4940891;28;45234;-78
2022/01/19 11:55:16;;;;;;;;;53.50;39.50;;;;;9.41;61.01;102307.44;4939191;28;45126;-72
2022/01/19 11:57:43;;;;;;;;;53.50;42.00;;;;;9.09;60.77;102254.97;4937466;28;45041;-74
2022/01/19 12:00:17;;;;;;;;;50.75;38.50;;;;;8.75;61.93;102185.50;4934902;28;45103;-74
2022/01/19 12:02:45;;;;;;;;;53.25;36.75;;;;;8.59;61.71;102179.28;4934605;28;45108;-76
2022/01/19 12:05:10;;;;;;;;;49.25;37.75;;;;;9.25;62.01;102293.16;4948107;28;45345;-72
2022/01/19 12:07:40;;;;;;;;;36.00;26.50;;;;;9.23;62.86;102304.66;4929538;28;45243;-71
2022/01/19 12:10:07;;;;;;;;;50.25;36.50;;;;;9.22;62.66;102300.16;4924046;28;45356;-72
2022/01/19 12:12:39;;;;;;;;;47.50;36.50;;;;;8.92;62.23;102246.00;4919927;28;45515;-75
2022/01/19 12:15:08;;;;;;;;;45.25;36.25;;;;;8.31;62.40;102134.13;4921697;28;46130;-79
2022/01/19 12:17:53;;;;;;;;;47.25;38.75;;;;;9.21;62.51;102290.31;4929796;28;45539;-73
2022/01/19 12:20:46;;;;;;;;;38.50;30.75;;;;;9.22;61.96;102289.50;4929314;28;45528;-74
2022/01/19 12:23:31;;;;;;;;;45.25;36.75;;;;;9.25;62.68;102280.72;4920858;28;45403;-75
2022/01/19 12:26:01;;;;;;;;;45.50;33.50;;;;;9.29;61.42;102277.41;4920265;28;46566;-75
2022/01/19 12:28:51;;;;;;;;;28.75;23.00;;;;;8.92;62.07;102184.69;4920273;28;45419;-75
2022/01/19 12:31:22;;;;;;;;;38.50;25.75;;;;;9.56;60.77;102271.78;4919552;28;45580;-75
2022/01/19 12:34:07;;;;;;;;;36.75;31.25;;;;;9.56;60.75;102271.78;4915331;28;45811;-76
2022/01/19 12:36:47;;;;;;;;;27.00;19.25;;;;;9.50;61.46;102268.75;4917123;28;47478;-74
2022/01/19 12:39:24;;;;;;;;;38.25;32.75;;;;;9.47;60.98;102274.88;4917945;28;45687;-74
2022/01/19 12:41:55;;;;;;;;;26.00;23.75;;;;;9.25;61.45;102235.41;4916668;28;45669;-78
2022/01/19 12:44:36;;;;;;;;;26.50;22.00;;;;;8.93;61.76;102188.28;4916682;28;45508;-73
2022/01/19 12:47:02;;;;;;;;;35.25;26.75;;;;;9.31;61.47;102254.41;4922466;28;45807;-76
2022/01/19 12:49:30;;;;;;;;;31.25;27.50;;;;;9.29;62.27;102263.16;4916308;28;45476;-71